Time;durP1;ratioP1;P1;durP2;ratioP2;P2;SDS_P1;SDS_P2;PMS_P1;PMS_P2;Temp;Humidity;BMP_temperature;BMP_pressure;BME280_temperature;BME280_humidity;BME280_pressure;Samples;Min_cycle;Max_cycle;Signal;HPM_P1;HPM_P2
2023/08/14 00:00:32;;;;;;;11.63;1.93;;;16.00;99.90;;;;;;5043334;28;20218;-86
2023/08/14 00:02:58;;;;;;;4.90;1.73;;;16.00;99.90;;;;;;5042123;28;20230;-87
2023/08/14 00:05:23;;;;;;;4.67;1.87;;;16.00;99.90;;;;;;5044240;28;20668;-84
2023/08/14 00:07:49;;;;;;;2.20;1.30;;;16.00;99.90;;;;;;5042888;28;20210;-87
2023/08/14 00:10:15;;;;;;;2.63;2.03;;;16.00;99.90;;;;;;5042467;28;20225;-88
2023/08/14 00:12:41;;;;;;;2.43;1.67;;;16.00;99.90;;;;;;5042377;28;21206;-86
2023/08/14 00:15:07;;;;;;;3.27;1.87;;;16.00;99.90;;;;;;5042997;28;20248;-87
2023/08/14 00:17:33;;;;;;;2.93;1.87;;;15.90;99.90;;;;;;5044031;28;20421;-87
2023/08/14 00:19:59;;;;;;;2.27;1.47;;;15.90;99.90;;;;;;5043473;28;20249;-87
2023/08/14 00:22:25;;;;;;;4.57;3.03;;;15.90;99.90;;;;;;5024301;28;20309;-86
2023/08/14 00:24:51;;;;;;;1.87;1.47;;;15.80;99.90;;;;;;5043250;28;20198;-88
2023/08/14 00:27:16;;;;;;;3.60;2.00;;;15.80;99.90;;;;;;5026006;28;20228;-87
2023/08/14 00:29:42;;;;;;;3.13;2.10;;;15.70;99.90;;;;;;5043176;28;20244;-89
2023/08/14 00:32:08;;;;;;;5.67;1.93;;;15.50;99.90;;;;;;5043118;28;20213;-88
2023/08/14 00:34:34;;;;;;;1.73;1.43;;;15.50;99.90;;;;;;5042079;28;20218;-87
2023/08/14 00:36:59;;;;;;;9.43;3.00;;;15.50;99.90;;;;;;5043130;28;20190;-87
2023/08/14 00:39:25;;;;;;;1.93;1.73;;;15.40;99.90;;;;;;5042823;28;20186;-85
2023/08/14 00:41:51;;;;;;;4.40;1.87;;;15.20;99.90;;;;;;5058682;28;20699;-84
2023/08/14 00:44:16;;;;;;;1.80;1.70;;;15.00;99.90;;;;;;5042952;28;20231;-87
2023/08/14 00:46:42;;;;;;;4.07;1.73;;;15.00;99.90;;;;;;5024604;28;20887;-85
2023/08/14 00:49:08;;;;;;;2.50;1.80;;;15.00;99.90;;;;;;5041843;28;20188;-84
2023/08/14 00:51:35;;;;;;;2.30;2.00;;;14.90;99.90;;;;;;5043109;28;20209;-85
2023/08/14 00:54:01;;;;;;;3.03;1.73;;;14.80;99.90;;;;;;5042343;28;20218;-85
2023/08/14 00:56:29;;;;;;;2.20;1.50;;;14.70;99.90;;;;;;5041020;28;20229;-85
2023/08/14 00:58:55;;;;;;;2.03;1.80;;;14.60;99.90;;;;;;5041189;28;20222;-86
2023/08/14 01:01:21;;;;;;;3.63;2.13;;;14.50;99.90;;;;;;5042166;28;20579;-83
2023/08/14 01:03:47;;;;;;;3.13;1.77;;;14.40;99.90;;;;;;5042174;28;20198;-87
2023/08/14 01:06:12;;;;;;;2.33;2.03;;;14.40;99.90;;;;;;5042376;28;20218;-85
2023/08/14 01:08:39;;;;;;;4.17;1.90;;;14.40;99.90;;;;;;5042203;28;20582;-87
2023/08/14 01:11:16;;;;;;;2.47;1.87;;;14.50;99.90;;;;;;5042337;28;20392;-85
2023/08/14 01:13:48;;;;;;;10.43;2.20;;;14.60;99.90;;;;;;5075337;28;20221;-85
2023/08/14 01:16:20;;;;;;;3.57;1.97;;;14.60;99.90;;;;;;5043099;28;20265;-87
2023/08/14 01:18:47;;;;;;;3.47;1.90;;;14.60;99.90;;;;;;5075903;28;20186;-87
2023/08/14 01:21:35;;;;;;;5.20;3.10;;;14.60;99.90;;;;;;5032444;28;20317;-87
2023/08/14 01:24:16;;;;;;;4.40;1.73;;;14.50;99.90;;;;;;5041633;28;20225;-87
2023/08/14 01:26:43;;;;;;;3.10;1.80;;;14.30;99.90;;;;;;5031501;28;20224;-87
2023/08/14 01:29:08;;;;;;;3.43;2.73;;;14.30;99.90;;;;;;5042352;28;20245;-88
2023/08/14 01:31:34;;;;;;;1.73;1.53;;;14.30;99.90;;;;;;5042057;28;21262;-87
2023/08/14 01:34:00;;;;;;;3.03;1.77;;;14.40;99.90;;;;;;5041631;28;20699;-87
2023/08/14 01:36:38;;;;;;;3.37;2.17;;;14.50;99.90;;;;;;5042490;28;20568;-87
2023/08/14 01:39:08;;;;;;;3.13;2.37;;;14.50;99.90;;;;;;5042880;28;20213;-87
2023/08/14 01:41:46;;;;;;;3.97;2.50;;;14.40;99.90;;;;;;5042351;28;20218;-88
2023/08/14 01:44:14;;;;;;;3.07;1.70;;;14.30;99.90;;;;;;5042093;28;20251;-87
2023/08/14 01:46:42;;;;;;;2.63;2.23;;;14.20;99.90;;;;;;5056594;28;20230;-87
2023/08/14 01:49:11;;;;;;;5.60;2.27;;;14.30;99.90;;;;;;5042621;28;20301;-86
2023/08/14 01:51:38;;;;;;;3.20;2.60;;;14.30;99.90;;;;;;5041969;28;20243;-87
2023/08/14 01:54:04;;;;;;;4.73;2.67;;;14.50;99.90;;;;;;5040867;28;20221;-87
2023/08/14 01:56:30;;;;;;;2.57;1.97;;;14.50;99.90;;;;;;5040506;28;20698;-86
2023/08/14 01:58:56;;;;;;;3.63;2.27;;;14.60;99.90;;;;;;5041580;28;20244;-87
2023/08/14 02:01:22;;;;;;;3.43;1.77;;;14.70;99.90;;;;;;5040792;28;20720;-87
2023/08/14 02:03:47;;;;;;;5.70;2.87;;;14.80;99.90;;;;;;5042149;28;20693;-87
2023/08/14 02:06:13;;;;;;;5.07;2.40;;;14.90;99.90;;;;;;5041704;28;20223;-88
2023/08/14 02:08:39;;;;;;;3.40;2.60;;;14.90;99.90;;;;;;5041008;28;20752;-84
2023/08/14 02:11:08;;;;;;;3.67;2.70;;;14.90;99.90;;;;;;5024563;28;20317;-88
2023/08/14 02:13:34;;;;;;;7.07;3.43;;;14.90;99.90;;;;;;5041812;28;20218;-87
2023/08/14 02:16:01;;;;;;;7.27;3.20;;;15.00;99.90;;;;;;5041378;28;20190;-86
2023/08/14 02:18:27;;;;;;;6.90;3.27;;;15.00;99.90;;;;;;5043040;28;20635;-87
2023/08/14 02:20:53;;;;;;;5.30;2.97;;;15.00;99.90;;;;;;5040784;28;20325;-88
2023/08/14 02:23:19;;;;;;;3.40;2.63;;;15.10;99.90;;;;;;5024618;28;21083;-87
2023/08/14 02:25:45;;;;;;;2.77;2.03;;;15.20;99.90;;;;;;5041305;28;20222;-88
2023/08/14 02:28:11;;;;;;;3.37;2.20;;;15.20;99.90;;;;;;5043229;28;20193;-88
2023/08/14 02:30:44;;;;;;;2.73;2.10;;;15.20;99.90;;;;;;5041880;28;20190;-86
2023/08/14 02:33:10;;;;;;;3.20;2.90;;;15.20;99.90;;;;;;5056473;28;20376;-88
2023/08/14 02:35:36;;;;;;;3.53;2.43;;;15.20;99.90;;;;;;5040750;28;20233;-88
2023/08/14 02:38:04;;;;;;;4.83;3.47;;;15.20;99.90;;;;;;5041207;28;20224;-87
2023/08/14 02:40:30;;;;;;;6.43;2.70;;;15.20;99.90;;;;;;5039992;28;20230;-85
2023/08/14 02:43:00;;;;;;;4.93;2.30;;;15.10;99.90;;;;;;5025389;28;20568;-87
2023/08/14 02:45:26;;;;;;;4.03;2.50;;;15.10;99.90;;;;;;5040211;28;20238;-85
2023/08/14 02:47:52;;;;;;;2.47;2.13;;;15.00;99.90;;;;;;5023434;28;20239;-87
2023/08/14 02:50:18;;;;;;;4.73;2.70;;;14.90;99.90;;;;;;5041264;28;20409;-87
2023/08/14 02:52:44;;;;;;;5.53;3.20;;;14.80;99.90;;;;;;5040814;28;20275;-87
2023/08/14 02:55:09;;;;;;;3.60;2.00;;;14.70;99.90;;;;;;5040972;28;20950;-87
2023/08/14 02:57:35;;;;;;;3.57;2.57;;;14.70;99.90;;;;;;5033188;28;20254;-86
2023/08/14 03:00:01;;;;;;;4.60;3.17;;;14.70;99.90;;;;;;5024246;28;20229;-87
2023/08/14 03:02:27;;;;;;;3.57;3.23;;;14.60;99.90;;;;;;5040474;28;20308;-86
2023/08/14 03:04:54;;;;;;;2.77;2.00;;;14.50;99.90;;;;;;5024407;28;20748;-87
2023/08/14 03:07:20;;;;;;;5.37;3.03;;;14.40;99.90;;;;;;5041068;28;20217;-87
2023/08/14 03:09:46;;;;;;;4.07;2.40;;;14.40;99.90;;;;;;5041170;28;20194;-86
2023/08/14 03:12:11;;;;;;;3.97;2.67;;;14.40;99.90;;;;;;5041481;28;20225;-87
2023/08/14 03:14:37;;;;;;;7.97;2.70;;;14.50;99.90;;;;;;5027198;28;20765;-86
2023/08/14 03:17:03;;;;;;;5.97;3.03;;;14.40;99.90;;;;;;5044004;28;20680;-86
2023/08/14 03:19:28;;;;;;;4.83;2.70;;;14.50;99.90;;;;;;5043595;28;20244;-87
2023/08/14 03:21:54;;;;;;;6.33;2.77;;;14.60;99.90;;;;;;5044397;28;20614;-84
2023/08/14 03:24:20;;;;;;;3.77;2.27;;;14.60;99.90;;;;;;5044228;28;20248;-87
2023/08/14 03:26:46;;;;;;;3.70;2.07;;;14.70;99.90;;;;;;5026892;28;21116;-87
2023/08/14 03:29:11;;;;;;;4.13;2.77;;;14.70;99.90;;;;;;5044089;28;20660;-86
2023/08/14 03:31:37;;;;;;;2.90;2.40;;;14.70;99.90;;;;;;5026168;28;20248;-86
2023/08/14 03:34:03;;;;;;;3.03;2.00;;;14.70;99.90;;;;;;5043921;28;20666;-85
2023/08/14 03:36:29;;;;;;;4.43;2.83;;;14.70;99.90;;;;;;5044016;28;20603;-87
2023/08/14 03:38:55;;;;;;;4.33;3.10;;;14.70;99.90;;;;;;5043278;28;20218;-87
2023/08/14 03:41:20;;;;;;;3.33;2.40;;;14.70;99.90;;;;;;5043002;28;20228;-87
2023/08/14 03:43:47;;;;;;;5.07;1.97;;;14.70;99.90;;;;;;5041615;28;20884;-86
2023/08/14 03:46:12;;;;;;;5.50;2.80;;;14.70;99.90;;;;;;5041376;28;20230;-86
2023/08/14 03:48:38;;;;;;;6.67;2.40;;;14.60;99.90;;;;;;5042425;28;20548;-87
2023/08/14 03:51:04;;;;;;;10.50;2.53;;;14.60;99.90;;;;;;5042142;28;20233;-87
2023/08/14 03:53:30;;;;;;;6.20;2.53;;;14.60;99.90;;;;;;5075622;28;20229;-86
2023/08/14 03:55:56;;;;;;;4.23;2.80;;;14.50;99.90;;;;;;5041667;28;20214;-86
2023/08/14 03:58:22;;;;;;;10.87;3.07;;;14.50;99.90;;;;;;5042499;28;20251;-84
2023/08/14 04:00:48;;;;;;;3.23;2.63;;;14.50;99.90;;;;;;5043246;28;20351;-86
2023/08/14 04:03:14;;;;;;;3.40;2.57;;;14.60;99.90;;;;;;5025230;28;20415;-86
2023/08/14 04:05:40;;;;;;;2.63;2.00;;;14.60;99.90;;;;;;5043040;28;20218;-87
2023/08/14 04:08:09;;;;;;;9.93;2.90;;;14.60;99.90;;;;;;5041267;28;20214;-87
2023/08/14 04:10:36;;;;;;;3.30;2.40;;;14.60;99.90;;;;;;5041202;28;20733;-87
2023/08/14 04:13:03;;;;;;;4.97;2.83;;;14.60;99.90;;;;;;5040272;28;20281;-85
2023/08/14 04:15:28;;;;;;;3.73;2.47;;;14.60;99.90;;;;;;5043238;28;20182;-86
2023/08/14 04:17:55;;;;;;;4.10;2.57;;;14.50;99.90;;;;;;5042388;28;20716;-87
2023/08/14 04:20:21;;;;;;;4.17;2.30;;;14.50;99.90;;;;;;5041040;28;20233;-85
2023/08/14 04:22:47;;;;;;;6.00;2.43;;;14.50;99.90;;;;;;5041145;28;20225;-87
2023/08/14 04:25:12;;;;;;;6.30;3.90;;;14.50;99.90;;;;;;5024267;28;20186;-87
2023/08/14 04:27:38;;;;;;;4.33;3.00;;;14.60;99.90;;;;;;5041755;28;20305;-87
2023/08/14 04:30:05;;;;;;;2.43;2.13;;;14.50;99.90;;;;;;5042358;28;20410;-86
2023/08/14 04:32:32;;;;;;;4.73;3.20;;;14.50;99.90;;;;;;5041777;28;20216;-87
2023/08/14 04:34:58;;;;;;;4.53;2.70;;;14.60;99.90;;;;;;5056655;28;20261;-87
2023/08/14 04:37:23;;;;;;;4.63;3.47;;;14.60;99.90;;;;;;5041366;28;20333;-86
2023/08/14 04:39:49;;;;;;;5.17;2.47;;;14.60;99.90;;;;;;5041605;28;20693;-86
2023/08/14 04:42:15;;;;;;;3.50;3.00;;;14.60;99.90;;;;;;5041356;28;20217;-86
2023/08/14 04:44:41;;;;;;;4.50;2.83;;;14.60;99.90;;;;;;5041919;28;20460;-85
2023/08/14 04:47:06;;;;;;;10.70;2.93;;;14.60;99.90;;;;;;5041480;28;20675;-87
2023/08/14 04:49:32;;;;;;;4.00;2.47;;;14.70;99.90;;;;;;5034286;28;20220;-87
2023/08/14 04:51:58;;;;;;;3.67;2.30;;;14.80;99.90;;;;;;5040297;28;20256;-86
2023/08/14 04:54:25;;;;;;;4.13;2.33;;;14.90;99.90;;;;;;5040643;28;20220;-86
2023/08/14 04:56:51;;;;;;;3.50;2.97;;;14.90;99.90;;;;;;5040378;28;20217;-88
2023/08/14 04:59:16;;;;;;;4.83;2.77;;;15.00;99.90;;;;;;5041421;28;20224;-85
2023/08/14 05:01:42;;;;;;;4.57;3.20;;;15.10;99.90;;;;;;5023138;28;20689;-86
2023/08/14 05:04:08;;;;;;;4.77;2.77;;;15.10;99.90;;;;;;5040943;28;20226;-85
2023/08/14 05:06:33;;;;;;;5.47;3.00;;;15.20;99.90;;;;;;5040410;28;20190;-88
2023/08/14 05:08:59;;;;;;;3.67;2.93;;;15.30;99.90;;;;;;5039527;28;21136;-86
2023/08/14 05:11:25;;;;;;;4.03;2.57;;;15.30;99.90;;;;;;5007022;28;20245;-86
2023/08/14 05:13:51;;;;;;;3.93;2.43;;;15.40;99.90;;;;;;5040815;28;20214;-86
2023/08/14 05:16:16;;;;;;;4.47;2.73;;;15.40;99.90;;;;;;5039985;28;20198;-87
2023/08/14 05:18:42;;;;;;;3.83;2.97;;;15.50;99.90;;;;;;5040956;28;20633;-85
2023/08/14 05:21:08;;;;;;;3.70;2.70;;;15.50;99.90;;;;;;5040836;28;21069;-86
2023/08/14 05:23:34;;;;;;;4.03;3.13;;;15.60;99.90;;;;;;5040811;28;20225;-88
2023/08/14 05:25:59;;;;;;;4.30;3.00;;;15.60;99.90;;;;;;5023017;28;20581;-87
2023/08/14 05:28:25;;;;;;;4.43;2.63;;;15.70;99.90;;;;;;5040541;28;20752;-86
2023/08/14 05:30:51;;;;;;;6.90;3.20;;;15.70;99.90;;;;;;5040500;28;20677;-86
2023/08/14 05:33:17;;;;;;;7.67;3.23;;;15.80;99.90;;;;;;5041381;28;20218;-85
2023/08/14 05:35:43;;;;;;;4.63;3.10;;;15.90;99.90;;;;;;5039671;28;20218;-86
2023/08/14 05:38:08;;;;;;;5.17;3.33;;;15.90;99.90;;;;;;5040093;28;20264;-87
2023/08/14 05:40:34;;;;;;;3.40;2.70;;;16.00;99.90;;;;;;5040273;28;20311;-86
2023/08/14 05:43:10;;;;;;;4.97;3.07;;;16.10;99.90;;;;;;5039477;28;20240;-86
2023/08/14 05:45:44;;;;;;;3.90;3.07;;;16.20;99.90;;;;;;5057131;28;20190;-86
2023/08/14 05:48:11;;;;;;;4.13;3.30;;;16.20;99.90;;;;;;5040222;28;20688;-88
2023/08/14 05:50:37;;;;;;;5.10;3.83;;;16.20;99.90;;;;;;5046207;28;20206;-86
2023/08/14 05:53:04;;;;;;;5.70;3.53;;;16.30;99.90;;;;;;5040150;28;20578;-86
2023/08/14 05:55:41;;;;;;;3.70;3.20;;;16.30;99.90;;;;;;5039348;28;20729;-87
2023/08/14 05:58:07;;;;;;;10.40;4.90;;;16.50;99.90;;;;;;5040072;28;20189;-88
2023/08/14 06:00:34;;;;;;;5.37;3.33;;;16.50;99.90;;;;;;5041096;28;20293;-85
2023/08/14 06:03:00;;;;;;;3.60;3.10;;;16.50;99.90;;;;;;5039250;28;20752;-87
2023/08/14 06:05:26;;;;;;;5.23;3.17;;;16.60;99.90;;;;;;5039775;28;20260;-86
2023/08/14 06:07:54;;;;;;;13.37;3.93;;;16.60;99.90;;;;;;5039742;28;20213;-89
2023/08/14 06:10:20;;;;;;;4.93;3.73;;;16.60;99.90;;;;;;5022693;28;20229;-88
2023/08/14 06:12:48;;;;;;;5.47;3.23;;;16.60;99.90;;;;;;5039706;28;20174;-86
2023/08/14 06:15:15;;;;;;;4.10;3.30;;;16.70;99.90;;;;;;5039311;28;20221;-86
2023/08/14 06:17:42;;;;;;;6.80;3.47;;;16.80;99.90;;;;;;5038316;28;20222;-87
2023/08/14 06:20:10;;;;;;;5.53;2.77;;;16.90;99.90;;;;;;5038527;28;20259;-87
2023/08/14 06:22:40;;;;;;;6.77;3.63;;;16.90;99.90;;;;;;5038908;28;20221;-86
2023/08/14 06:25:07;;;;;;;3.73;3.23;;;17.10;99.90;;;;;;5039399;28;20547;-87
2023/08/14 06:27:33;;;;;;;5.40;3.53;;;17.20;99.90;;;;;;5041127;28;20194;-88
2023/08/14 06:29:59;;;;;;;3.73;2.97;;;17.30;99.90;;;;;;5038574;28;20229;-85
2023/08/14 06:32:25;;;;;;;3.90;2.60;;;17.50;99.90;;;;;;5040090;28;20239;-88
2023/08/14 06:34:51;;;;;;;7.43;3.13;;;17.50;99.90;;;;;;5040795;28;20210;-87
2023/08/14 06:37:16;;;;;;;4.53;2.90;;;17.70;99.90;;;;;;5023983;28;20191;-86
2023/08/14 06:39:43;;;;;;;6.50;3.03;;;17.90;99.90;;;;;;5039676;28;20223;-87
2023/08/14 06:42:08;;;;;;;7.33;3.07;;;18.10;99.90;;;;;;5039695;28;20212;-87
2023/08/14 06:44:34;;;;;;;5.43;3.13;;;18.20;99.90;;;;;;5040365;28;20214;-86
2023/08/14 06:47:01;;;;;;;3.23;2.50;;;18.50;99.90;;;;;;5042059;28;20761;-86
2023/08/14 06:49:27;;;;;;;3.53;2.13;;;18.80;99.90;;;;;;5076936;28;20221;-87
2023/08/14 06:51:53;;;;;;;6.50;3.60;;;19.30;99.90;;;;;;5044423;28;21014;-87
2023/08/14 06:54:19;;;;;;;3.67;2.53;;;19.60;99.90;;;;;;5044625;28;20236;-87
2023/08/14 06:56:45;;;;;;;2.47;1.90;;;19.70;99.90;;;;;;5048399;28;20745;-88
2023/08/14 06:59:11;;;;;;;3.70;2.43;;;19.80;99.90;;;;;;5045453;28;20214;-87
2023/08/14 07:01:36;;;;;;;3.43;2.43;;;20.00;99.90;;;;;;5076775;28;20243;-87
2023/08/14 07:04:03;;;;;;;3.43;2.47;;;20.10;99.90;;;;;;5012358;28;20312;-86
2023/08/14 07:06:29;;;;;;;3.30;2.63;;;20.10;99.90;;;;;;5028316;28;20186;-84
2023/08/14 07:08:55;;;;;;;2.80;2.30;;;20.20;99.90;;;;;;5043961;28;20683;-87
2023/08/14 07:11:21;;;;;;;2.97;2.40;;;20.30;99.90;;;;;;5045296;28;20665;-86
2023/08/14 07:13:46;;;;;;;4.90;3.27;;;20.60;99.90;;;;;;5045492;28;20218;-86
2023/08/14 07:16:12;;;;;;;3.30;1.63;;;21.10;99.90;;;;;;5043591;28;20626;-88
2023/08/14 07:18:38;;;;;;;2.57;2.33;;;22.10;99.90;;;;;;5045180;28;20186;-89
2023/08/14 07:21:04;;;;;;;2.20;2.00;;;22.80;99.90;;;;;;5027650;28;20253;-88
2023/08/14 07:23:31;;;;;;;3.13;1.80;;;22.70;99.90;;;;;;5045409;28;20213;-88
2023/08/14 07:25:59;;;;;;;2.73;2.03;;;22.30;99.90;;;;;;5046241;28;20264;-87
2023/08/14 07:28:26;;;;;;;3.50;2.37;;;22.20;99.90;;;;;;5045583;28;20263;-86
2023/08/14 07:30:52;;;;;;;5.43;2.53;;;22.30;99.90;;;;;;5044921;28;20596;-88
2023/08/14 07:33:17;;;;;;;2.40;1.80;;;22.60;99.90;;;;;;5044123;28;20997;-87
2023/08/14 07:35:43;;;;;;;2.77;2.20;;;22.80;99.90;;;;;;5045506;28;20218;-88
2023/08/14 07:38:10;;;;;;;2.53;1.57;;;22.60;99.90;;;;;;5044061;28;20332;-87
2023/08/14 07:40:35;;;;;;;4.07;2.13;;;22.90;99.90;;;;;;5043912;28;20699;-88
2023/08/14 07:43:01;;;;;;;3.27;2.40;;;22.80;99.90;;;;;;5043636;28;20193;-87
2023/08/14 07:45:27;;;;;;;2.78;1.85;;;22.40;99.90;;;;;;5028866;28;20170;-88
2023/08/14 07:47:53;;;;;;;4.43;1.97;;;22.10;99.90;;;;;;5059394;28;20230;-88
2023/08/14 07:50:19;;;;;;;5.28;2.00;;;22.00;99.90;;;;;;5044825;28;20213;-90
2023/08/14 07:52:45;;;;;;;2.08;1.88;;;21.80;99.90;;;;;;5044822;28;20576;-89
2023/08/14 07:55:17;;;;;;;2.90;2.10;;;22.00;99.90;;;;;;5044089;28;20216;-86
2023/08/14 07:57:45;;;;;;;2.60;1.87;;;22.40;99.90;;;;;;5045465;28;20194;-87
2023/08/14 08:00:14;;;;;;;4.40;2.17;;;22.40;99.90;;;;;;5043689;28;20222;-88
2023/08/14 08:02:41;;;;;;;2.28;1.60;;;22.70;99.90;;;;;;5027290;28;20312;-89
2023/08/14 08:05:07;;;;;;;2.10;1.73;;;23.60;99.90;;;;;;5042591;28;20586;-89
2023/08/14 08:07:33;;;;;;;1.90;1.33;;;24.10;99.90;;;;;;5045007;28;20226;-88
2023/08/14 08:09:58;;;;;;;1.45;1.35;;;24.00;99.90;;;;;;5074037;28;20186;-85
2023/08/14 08:12:24;;;;;;;6.20;1.80;;;23.80;99.90;;;;;;5043137;28;20202;-86
2023/08/14 08:14:50;;;;;;;5.43;2.05;;;24.00;99.90;;;;;;5043147;28;20232;-84
2023/08/14 08:17:19;;;;;;;2.50;1.60;;;23.80;99.90;;;;;;5075248;28;20206;-89
2023/08/14 08:19:46;;;;;;;1.95;1.60;;;23.60;99.90;;;;;;5026552;28;20230;-87
2023/08/14 08:22:12;;;;;;;2.47;1.52;;;23.20;99.90;;;;;;5042607;28;20190;-85
2023/08/14 08:24:38;;;;;;;4.38;1.60;;;23.10;99.90;;;;;;5075393;28;20198;-86
2023/08/14 08:27:04;;;;;;;8.65;1.45;;;22.80;99.90;;;;;;5042873;28;20773;-90
2023/08/14 08:29:30;;;;;;;3.40;1.40;;;22.40;99.90;;;;;;5043439;28;20243;-91
2023/08/14 08:31:56;;;;;;;3.03;1.88;;;22.30;99.90;;;;;;5034003;28;21046;-87
2023/08/14 08:34:22;;;;;;;5.28;2.20;;;22.40;99.90;;;;;;5043669;28;20213;-88
2023/08/14 08:36:47;;;;;;;4.03;1.60;;;22.70;99.90;;;;;;5043963;28;21080;-88
2023/08/14 08:39:13;;;;;;;3.33;1.77;;;23.00;99.90;;;;;;5041674;28;20205;-88
2023/08/14 08:41:44;;;;;;;4.13;1.40;;;23.40;99.90;;;;;;5042567;28;20228;-89
2023/08/14 08:44:10;;;;;;;4.00;1.35;;;23.50;99.90;;;;;;5040737;28;20617;-88
2023/08/14 08:46:45;;;;;;;2.78;1.73;;;23.60;99.90;;;;;;5046385;28;20328;-87
2023/08/14 08:49:11;;;;;;;2.10;1.88;;;23.60;99.90;;;;;;5073803;28;20181;-87
2023/08/14 08:51:40;;;;;;;2.40;1.20;;;23.30;99.90;;;;;;5041067;28;20552;-87
2023/08/14 08:54:06;;;;;;;2.80;1.90;;;23.20;99.90;;;;;;5040643;28;20202;-89
2023/08/14 08:56:33;;;;;;;1.88;1.35;;;23.20;99.90;;;;;;5024322;28;20217;-88
2023/08/14 08:58:59;;;;;;;4.45;1.27;;;23.40;99.90;;;;;;5039222;28;20221;-88
2023/08/14 09:01:25;;;;;;;3.60;1.60;;;23.40;99.90;;;;;;5040036;28;20279;-88
2023/08/14 09:03:51;;;;;;;2.80;1.75;;;23.00;99.90;;;;;;5041277;28;20230;-87
2023/08/14 09:06:17;;;;;;;1.90;1.33;;;22.70;99.90;;;;;;5022062;28;20224;-87
2023/08/14 09:08:43;;;;;;;4.05;1.83;;;22.50;99.90;;;;;;5039112;28;20250;-87
2023/08/14 09:11:09;;;;;;;1.75;1.38;;;22.90;99.90;;;;;;5039714;28;20317;-87
2023/08/14 09:13:35;;;;;;;2.35;1.42;;;24.20;99.90;;;;;;5023554;28;20890;-86
2023/08/14 09:16:01;;;;;;;5.00;1.90;;;25.10;99.90;;;;;;5071789;28;20201;-88
2023/08/14 09:18:27;;;;;;;2.88;2.17;;;25.50;99.90;;;;;;5040510;28;20174;-86
2023/08/14 09:20:54;;;;;;;3.40;1.35;;;26.70;99.90;;;;;;5039759;28;20225;-88
2023/08/14 09:23:20;;;;;;;3.33;1.48;;;27.40;99.90;;;;;;5022706;28;20714;-86
2023/08/14 09:25:46;;;;;;;2.22;1.40;;;27.80;99.90;;;;;;5023644;28;20679;-89
2023/08/14 09:28:13;;;;;;;2.05;1.85;;;28.30;99.90;;;;;;5040463;28;20182;-89
2023/08/14 09:30:40;;;;;;;1.75;1.38;;;27.90;99.90;;;;;;5039801;28;20648;-88
2023/08/14 09:33:08;;;;;;;2.90;1.20;;;28.30;99.90;;;;;;5039699;28;20221;-88
2023/08/14 09:35:34;;;;;;;0.80;0.80;;;27.80;99.90;;;;;;5040091;28;20209;-86
2023/08/14 09:38:00;;;;;;;1.13;1.00;;;27.80;99.90;;;;;;5039581;28;20206;-88
2023/08/14 09:40:26;;;;;;;1.50;1.08;;;27.70;99.90;;;;;;5021981;28;20261;-90
2023/08/14 09:42:54;;;;;;;1.98;1.25;;;27.80;99.90;;;;;;5041884;28;20178;-90
2023/08/14 09:45:23;;;;;;;3.53;1.25;;;28.10;99.90;;;;;;5040249;28;20268;-87
2023/08/14 09:47:50;;;;;;;3.65;1.20;;;27.70;99.90;;;;;;5039044;28;20238;-91
2023/08/14 09:50:19;;;;;;;2.70;1.58;;;26.60;99.90;;;;;;5054049;28;20210;-88
2023/08/14 09:52:45;;;;;;;1.00;1.00;;;25.90;99.90;;;;;;5040012;28;20218;-86
2023/08/14 09:55:14;;;;;;;0.82;0.82;;;25.60;99.90;;;;;;5021888;28;20276;-88
2023/08/14 09:57:41;;;;;;;1.58;1.10;;;25.70;99.90;;;;;;5056324;28;20186;-87
2023/08/14 10:00:07;;;;;;;3.33;1.33;;;25.80;99.90;;;;;;5039634;28;20230;-88
2023/08/14 10:02:35;;;;;;;3.25;1.42;;;25.80;99.90;;;;;;5040618;28;20214;-88
2023/08/14 10:05:03;;;;;;;4.45;1.58;;;25.70;99.90;;;;;;5040769;28;20225;-87
2023/08/14 10:07:32;;;;;;;2.45;1.40;;;25.60;99.90;;;;;;5040388;28;20872;-87
2023/08/14 10:10:02;;;;;;;2.63;1.20;;;25.90;99.90;;;;;;5040121;28;20231;-87
2023/08/14 10:12:32;;;;;;;1.88;1.00;;;26.40;99.90;;;;;;5040786;28;20283;-88
2023/08/14 10:15:13;;;;;;;2.15;1.08;;;26.60;99.90;;;;;;5038331;28;20214;-89
2023/08/14 10:18:09;;;;;;;1.85;1.10;;;26.70;99.90;;;;;;5040256;28;20304;-88
2023/08/14 10:20:36;;;;;;;1.23;1.08;;;26.60;99.90;;;;;;5039236;28;20502;-87
2023/08/14 10:23:02;;;;;;;1.33;1.10;;;27.00;99.90;;;;;;5021896;28;20227;-89
2023/08/14 10:25:29;;;;;;;2.22;1.10;;;26.90;99.90;;;;;;5038522;28;20297;-88
2023/08/14 10:27:55;;;;;;;1.15;0.90;;;26.20;99.90;;;;;;5039230;28;20223;-89
2023/08/14 10:30:22;;;;;;;2.88;1.17;;;26.30;99.90;;;;;;5037998;28;20233;-87
2023/08/14 10:32:49;;;;;;;1.13;0.90;;;26.70;99.90;;;;;;5037961;28;20670;-87
2023/08/14 10:35:15;;;;;;;1.13;1.00;;;27.10;99.90;;;;;;5037678;28;20218;-89
2023/08/14 10:37:44;;;;;;;2.50;1.08;;;27.00;99.90;;;;;;5038838;28;20213;-87
2023/08/14 10:40:23;;;;;;;1.27;1.17;;;26.70;99.90;;;;;;5039732;28;20197;-91
2023/08/14 10:42:58;;;;;;;1.60;0.73;;;27.10;99.90;;;;;;5039578;28;20187;-88
2023/08/14 10:45:25;;;;;;;3.10;1.33;;;27.30;99.90;;;;;;5039759;28;20210;-88
2023/08/14 10:47:52;;;;;;;1.70;1.17;;;27.80;99.90;;;;;;5039566;28;20244;-88
2023/08/14 10:50:20;;;;;;;3.65;1.15;;;28.20;99.90;;;;;;5038291;28;20823;-88
2023/08/14 10:52:50;;;;;;;0.85;0.85;;;27.80;99.90;;;;;;5038584;28;20264;-86
2023/08/14 10:55:22;;;;;;;1.30;1.10;;;27.50;99.90;;;;;;5039684;28;20182;-87
2023/08/14 10:57:48;;;;;;;0.80;0.80;;;28.20;99.90;;;;;;5072555;28;20186;-87
2023/08/14 11:00:20;;;;;;;0.80;0.80;;;28.30;99.90;;;;;;5039905;28;20303;-88
2023/08/14 11:02:51;;;;;;;1.10;0.90;;;28.70;99.90;;;;;;5014181;28;20312;-87
2023/08/14 11:05:17;;;;;;;2.42;0.85;;;29.20;99.90;;;;;;5023149;28;20210;-85
2023/08/14 11:07:57;;;;;;;2.58;1.15;;;29.20;99.90;;;;;;5038108;28;20217;-88
2023/08/14 11:10:25;;;;;;;1.55;1.00;;;29.40;99.90;;;;;;5038625;28;20279;-86
2023/08/14 11:12:52;;;;;;;1.88;1.08;;;29.20;99.90;;;;;;5039895;28;21036;-87
2023/08/14 11:15:20;;;;;;;1.00;0.73;;;29.10;99.90;;;;;;5038030;28;20355;-88
2023/08/14 11:17:47;;;;;;;2.38;0.95;;;29.10;99.90;;;;;;5040913;28;20221;-86
2023/08/14 11:20:13;;;;;;;1.83;0.82;;;29.60;99.90;;;;;;5038824;28;20214;-87
2023/08/14 11:22:44;;;;;;;6.32;1.33;;;29.80;99.90;;;;;;5038656;28;20280;-87
2023/08/14 11:25:13;;;;;;;3.33;1.00;;;29.20;99.90;;;;;;5038523;28;20903;-86
2023/08/14 11:27:38;;;;;;;1.60;1.50;;;29.10;99.90;;;;;;5039314;28;20197;-85
2023/08/14 11:30:05;;;;;;;1.70;0.98;;;29.00;99.90;;;;;;5040942;28;20316;-88
2023/08/14 11:32:31;;;;;;;1.85;0.90;;;28.60;99.90;;;;;;5021610;28;20213;-87
2023/08/14 11:34:59;;;;;;;0.80;0.80;;;27.40;99.90;;;;;;5076439;28;20238;-85
2023/08/14 11:37:25;;;;;;;1.15;0.90;;;27.10;99.90;;;;;;5042908;28;20209;-86
2023/08/14 11:39:50;;;;;;;2.30;0.90;;;27.40;99.90;;;;;;5042064;28;20186;-87
2023/08/14 11:42:16;;;;;;;2.25;1.48;;;28.20;99.90;;;;;;5042470;28;20226;-88
2023/08/14 11:44:42;;;;;;;1.67;1.13;;;28.30;99.90;;;;;;5024397;28;20759;-86
2023/08/14 11:47:08;;;;;;;1.60;1.10;;;28.30;99.90;;;;;;5041614;28;20916;-86
2023/08/14 11:49:40;;;;;;;6.00;0.90;;;27.70;99.90;;;;;;5032791;28;20263;-87
2023/08/14 11:52:06;;;;;;;4.80;0.88;;;27.70;99.90;;;;;;5074036;28;20190;-85
2023/08/14 11:54:33;;;;;;;1.70;1.20;;;27.80;99.90;;;;;;5043280;28;20265;-85
2023/08/14 11:57:03;;;;;;;1.25;0.90;;;27.90;99.90;;;;;;5042448;28;20269;-88
2023/08/14 11:59:28;;;;;;;3.65;1.02;;;28.00;99.90;;;;;;5041497;28;20229;-87
2023/08/14 12:01:56;;;;;;;3.60;1.13;;;27.80;99.90;;;;;;5024653;28;20251;-86
2023/08/14 12:04:22;;;;;;;1.50;0.98;;;27.80;99.90;;;;;;5042422;28;20223;-85
2023/08/14 12:06:48;;;;;;;2.38;1.02;;;27.60;99.90;;;;;;5042589;28;20201;-86
2023/08/14 12:09:14;;;;;;;1.38;1.20;;;27.60;99.90;;;;;;5040206;28;21055;-86
2023/08/14 12:11:39;;;;;;;1.25;1.15;;;27.10;99.90;;;;;;5023323;28;20916;-83
2023/08/14 12:14:23;;;;;;;3.38;1.10;;;27.10;99.90;;;;;;5041940;28;20263;-86
2023/08/14 12:16:49;;;;;;;1.30;1.20;;;27.40;99.90;;;;;;5040035;28;21012;-86
2023/08/14 12:19:20;;;;;;;0.95;0.75;;;27.20;99.90;;;;;;5023048;28;20178;-83
2023/08/14 12:21:55;;;;;;;3.72;1.08;;;26.20;99.90;;;;;;5043106;28;21353;-86
2023/08/14 12:24:21;;;;;;;3.80;1.33;;;25.70;99.90;;;;;;5040785;28;20225;-86
2023/08/14 12:26:47;;;;;;;2.25;1.05;;;25.60;99.90;;;;;;5041642;28;20226;-88
2023/08/14 12:29:15;;;;;;;1.83;1.17;;;25.80;99.90;;;;;;5039366;28;20221;-86
2023/08/14 12:31:40;;;;;;;0.93;0.90;;;25.90;99.90;;;;;;5026372;28;20233;-84
2023/08/14 12:34:06;;;;;;;1.48;0.95;;;25.50;99.90;;;;;;5041439;28;20184;-86
2023/08/14 12:36:32;;;;;;;1.98;1.00;;;25.30;99.90;;;;;;5040231;28;21234;-83
2023/08/14 12:38:58;;;;;;;1.33;1.20;;;25.30;99.90;;;;;;5041283;28;20468;-85
2023/08/14 12:41:23;;;;;;;3.83;1.00;;;25.10;99.90;;;;;;5023424;28;20308;-85
2023/08/14 12:43:49;;;;;;;1.75;1.00;;;25.40;99.90;;;;;;5041131;28;20312;-86